createdAt,value
2022-11-20T00:00:02.291Z,1.06
2022-11-20T00:15:01.969Z,0.81
2022-11-20T00:30:01.650Z,0.74
2022-11-20T00:45:02.327Z,0.61
2022-11-20T01:00:01.971Z,0.62
2022-11-20T01:15:01.621Z,0.69
2022-11-20T01:30:01.578Z,0.53
2022-11-20T01:45:01.290Z,0.64
2022-11-20T02:00:01.931Z,0.51
2022-11-20T02:15:01.892Z,0.42
2022-11-20T02:30:01.639Z,0.4
2022-11-20T02:45:02.240Z,0.22
2022-11-20T03:00:01.890Z,0.16
2022-11-20T03:15:01.527Z,0.14
2022-11-20T03:30:02.126Z,0.09
2022-11-20T03:45:01.730Z,0.15
2022-11-20T04:00:02.327Z,0
2022-11-20T04:15:01.934Z,-0.25
2022-11-20T04:30:01.606Z,-0.27
2022-11-20T04:45:02.191Z,-0.31
2022-11-20T05:00:01.809Z,-0.23
2022-11-20T05:15:01.670Z,-0.28
2022-11-20T05:30:01.550Z,-0.3
2022-11-20T05:45:02.177Z,-0.21
2022-11-20T06:00:01.857Z,-0.35
2022-11-20T06:15:01.502Z,-0.08
2022-11-20T06:30:02.176Z,1.21
2022-11-20T06:45:01.823Z,1.32
2022-11-20T07:00:01.461Z,1.59
2022-11-20T07:15:02.062Z,1.61
2022-11-20T07:30:01.725Z,2.71
2022-11-20T07:45:01.376Z,3.52
2022-11-20T08:00:01.968Z,4.87
2022-11-20T08:15:01.627Z,5.53
2022-11-20T08:30:01.331Z,5.62
2022-11-20T08:45:01.967Z,6.91
2022-11-20T09:00:06.440Z,7.57
2022-11-20T09:15:01.614Z,7.78
2022-11-20T09:30:01.307Z,7.76
2022-11-20T09:45:01.696Z,8.8
2022-11-20T10:00:01.340Z,9.25
2022-11-20T10:15:02.278Z,10.51
2022-11-20T10:30:01.971Z,11.37
2022-11-20T10:45:05.784Z,11.56
2022-11-20T11:00:02.143Z,12.5
2022-11-20T11:15:01.833Z,12.86
2022-11-20T11:30:01.505Z,12.79
2022-11-20T11:45:02.175Z,14.46
2022-11-20T12:00:01.829Z,14.62
2022-11-20T12:15:01.527Z,12.6
2022-11-20T12:30:02.240Z,11.68
2022-11-20T12:45:01.916Z,11.7
2022-11-20T13:00:01.575Z,13.39
2022-11-20T13:15:02.254Z,14.82
2022-11-20T13:30:01.977Z,12.8
2022-11-20T13:45:01.654Z,10.88
2022-11-20T14:00:01.394Z,10.92
2022-11-20T14:15:02.387Z,11.15
2022-11-20T14:30:02.060Z,10.98
2022-11-20T14:45:01.707Z,10.08
2022-11-20T15:00:02.405Z,9.22
2022-11-20T15:15:02.093Z,8.68
2022-11-20T15:30:01.722Z,8.03
2022-11-20T15:45:02.384Z,7.79
2022-11-20T16:00:02.039Z,7.86
2022-11-20T16:15:01.730Z,7.78
2022-11-20T16:30:02.435Z,7.96
2022-11-20T16:45:02.113Z,7.94
2022-11-20T17:00:02.576Z,8.15
2022-11-20T17:15:01.480Z,8.27
2022-11-20T17:30:02.162Z,8.53
2022-11-20T17:45:01.810Z,8.56
2022-11-20T18:00:01.426Z,8.62
2022-11-20T18:15:02.080Z,8.36
2022-11-20T18:30:01.762Z,8.44
2022-11-20T18:45:01.477Z,8.78
2022-11-20T19:00:08.265Z,8.87
2022-11-20T19:15:01.437Z,8.28
2022-11-20T19:30:02.072Z,8
2022-11-20T19:45:01.709Z,7.65
2022-11-20T20:00:01.363Z,7.59
2022-11-20T20:15:02.016Z,7.39
2022-11-20T20:30:01.696Z,7.18
2022-11-20T20:45:01.390Z,7.2
2022-11-20T21:00:02.030Z,7.21
2022-11-20T21:15:01.704Z,7.45
2022-11-20T21:30:01.415Z,7.38
2022-11-20T21:45:02.098Z,7.32
2022-11-20T22:00:01.739Z,7.18
2022-11-20T22:15:01.750Z,7.15
2022-11-20T22:30:02.407Z,7.13
2022-11-20T22:45:02.025Z,7.23
2022-11-20T23:00:01.696Z,7.61
2022-11-20T23:15:02.388Z,7.5
2022-11-20T23:30:02.031Z,7.5
2022-11-20T23:45:01.717Z,7.52
